Time;durP1;ratioP1;P1;durP2;ratioP2;P2;SDS_P1;SDS_P2;PMS_P1;PMS_P2;Temp;Humidity;BMP_temperature;BMP_pressure;BME280_temperature;BME280_humidity;BME280_pressure;Samples;Min_cycle;Max_cycle;Signal;HPM_P1;HPM_P2
2021/06/22 00:04:08;;;;;;;9.57;5.40;;;;;;;20.47;100.00;94451.63;10532120;28;20106;-73
2021/06/22 00:09:08;;;;;;;14.47;5.43;;;;;;;20.33;100.00;94462.06;10532073;28;20020;-73
2021/06/22 00:14:08;;;;;;;9.20;5.30;;;;;;;20.31;100.00;94453.44;10531463;28;20111;-73
2021/06/22 00:19:09;;;;;;;12.67;5.80;;;;;;;20.16;100.00;94457.63;10531723;28;20028;-74
2021/06/22 00:24:09;;;;;;;10.38;5.43;;;;;;;20.26;100.00;94470.03;10531674;28;20024;-74
2021/06/22 00:29:10;;;;;;;16.42;5.80;;;;;;;20.13;100.00;94450.16;10532256;28;20028;-73
2021/06/22 00:34:10;;;;;;;8.57;4.90;;;;;;;20.10;100.00;94461.75;10530994;28;20044;-73
2021/06/22 00:39:11;;;;;;;10.70;5.23;;;;;;;20.03;100.00;94445.94;10532443;28;20130;-73
2021/06/22 00:44:11;;;;;;;8.03;5.07;;;;;;;19.90;100.00;94433.41;10531831;28;20387;-73
2021/06/22 00:49:11;;;;;;;11.38;5.45;;;;;;;19.78;100.00;94423.28;10532045;28;20327;-73
2021/06/22 00:54:12;;;;;;;5.63;4.40;;;;;;;19.74;100.00;94427.81;10532006;28;20034;-73
2021/06/22 00:59:12;;;;;;;6.93;4.55;;;;;;;19.69;100.00;94415.22;10531777;28;20269;-73
2021/06/22 01:04:13;;;;;;;12.30;4.53;;;;;;;19.77;100.00;94424.41;10531076;28;20099;-73
2021/06/22 01:09:13;;;;;;;7.07;4.90;;;;;;;19.83;100.00;94436.72;10531082;28;20272;-73
2021/06/22 01:14:13;;;;;;;10.68;5.60;;;;;;;19.84;100.00;94421.16;10529900;28;20282;-74
2021/06/22 01:19:14;;;;;;;7.60;4.97;;;;;;;19.73;100.00;94394.31;10531153;28;20052;-73
2021/06/22 01:24:17;;;;;;;7.60;5.47;;;;;;;19.66;100.00;94396.81;10530642;28;20771;-73
2021/06/22 01:29:18;;;;;;;6.90;4.82;;;;;;;19.66;100.00;94390.53;10530585;28;20038;-73
2021/06/22 01:34:28;;;;;;;7.95;4.70;;;;;;;19.63;100.00;94397.47;10529744;28;20556;-73
2021/06/22 01:39:28;;;;;;;6.68;5.47;;;;;;;19.69;100.00;94411.66;10528843;28;20085;-73
2021/06/22 01:44:32;;;;;;;7.82;5.07;;;;;;;19.64;100.00;94404.53;10529059;28;20884;-73
2021/06/22 01:49:33;;;;;;;7.78;5.35;;;;;;;19.58;100.00;94393.03;10528450;28;20024;-74
2021/06/22 01:54:33;;;;;;;12.27;5.47;;;;;;;19.71;100.00;94409.41;10528333;28;20024;-74
2021/06/22 01:59:34;;;;;;;8.37;4.87;;;;;;;19.81;100.00;94433.53;10529251;28;20016;-73
2021/06/22 02:04:35;;;;;;;8.20;4.80;;;;;;;19.88;100.00;94433.75;10528372;28;20270;-73
2021/06/22 02:09:36;;;;;;;7.97;5.03;;;;;;;19.89;100.00;94450.94;10528910;28;20026;-74
2021/06/22 02:14:36;;;;;;;10.40;5.60;;;;;;;19.85;100.00;94444.56;10528761;28;20024;-73
2021/06/22 02:19:37;;;;;;;7.70;5.20;;;;;;;19.73;100.00;94424.31;10528356;28;20277;-74
2021/06/22 02:24:38;;;;;;;7.80;5.30;;;;;;;19.50;100.00;94423.91;10528900;28;20031;-73
2021/06/22 02:29:38;;;;;;;13.20;6.30;;;;;;;19.28;100.00;94430.56;10528726;28;20030;-73
2021/06/22 02:34:39;;;;;;;11.17;6.47;;;;;;;19.18;100.00;94429.03;10527276;28;20521;-73
2021/06/22 02:39:39;;;;;;;12.60;6.40;;;;;;;19.14;100.00;94417.22;10528599;28;20115;-73
2021/06/22 02:44:40;;;;;;;11.88;6.43;;;;;;;19.09;100.00;94412.00;10528512;28;20024;-73
2021/06/22 02:49:40;;;;;;;13.60;7.53;;;;;;;19.03;100.00;94425.00;10528484;28;20028;-73
2021/06/22 02:54:40;;;;;;;15.30;7.03;;;;;;;19.18;100.00;94431.00;10528233;28;20024;-73
2021/06/22 02:59:41;;;;;;;13.73;7.13;;;;;;;19.01;100.00;94429.22;10528354;28;20024;-73
2021/06/22 03:04:41;;;;;;;13.97;8.23;;;;;;;19.03;100.00;94441.34;10528106;28;20107;-73
2021/06/22 03:09:42;;;;;;;18.35;8.60;;;;;;;19.25;100.00;94440.19;10528169;28;20270;-73
2021/06/22 03:14:42;;;;;;;14.70;7.90;;;;;;;19.40;100.00;94429.81;10527669;28;20132;-73
2021/06/22 03:19:43;;;;;;;18.03;7.47;;;;;;;19.51;100.00;94441.88;10527333;28;20020;-73
2021/06/22 03:24:43;;;;;;;11.67;7.57;;;;;;;19.55;100.00;94444.69;10527933;28;20799;-73
2021/06/22 03:29:44;;;;;;;11.63;7.63;;;;;;;19.61;100.00;94452.31;10529320;28;20270;-74
2021/06/22 03:34:44;;;;;;;11.45;6.47;;;;;;;19.55;100.00;94452.88;10534976;28;20105;-73
2021/06/22 03:39:47;;;;;;;13.53;7.73;;;;;;;19.53;100.00;94455.16;10535010;28;20029;-73
2021/06/22 03:44:47;;;;;;;13.45;7.70;;;;;;;19.53;100.00;94447.75;10534676;28;20024;-73
2021/06/22 03:49:48;;;;;;;14.18;7.53;;;;;;;19.65;100.00;94441.56;10534369;28;20050;-73
2021/06/22 03:54:48;;;;;;;16.73;7.70;;;;;;;19.82;100.00;94448.75;10533838;28;20111;-73
2021/06/22 03:59:50;;;;;;;14.77;9.27;;;;;;;19.85;100.00;94458.22;10533810;28;20023;-73
2021/06/22 04:04:50;;;;;;;13.02;7.03;;;;;;;19.78;100.00;94464.19;10534074;28;20943;-73
2021/06/22 04:09:51;;;;;;;15.60;7.90;;;;;;;19.74;100.00;94466.00;10533083;28;20077;-73
2021/06/22 04:14:51;;;;;;;15.57;8.50;;;;;;;19.64;100.00;94467.22;10532391;28;20020;-73
2021/06/22 04:19:52;;;;;;;13.07;8.33;;;;;;;19.76;100.00;94471.91;10532730;28;20455;-73
2021/06/22 04:24:52;;;;;;;23.45;8.57;;;;;;;19.82;100.00;94470.59;10532935;28;20277;-73
2021/06/22 04:29:52;;;;;;;18.83;8.47;;;;;;;19.94;100.00;94462.41;10532900;28;20486;-72
2021/06/22 04:34:53;;;;;;;18.58;9.18;;;;;;;20.31;100.00;94476.06;10533097;28;20132;-72
2021/06/22 04:39:53;;;;;;;16.30;8.38;;;;;;;20.98;100.00;94474.97;10533322;28;20376;-72
2021/06/22 04:44:54;;;;;;;13.37;7.73;;;;;;;21.52;100.00;94487.44;10531860;28;20458;-73
2021/06/22 04:49:54;;;;;;;19.23;6.73;;;;;;;22.19;100.00;94484.88;10529974;28;20262;-72
2021/06/22 04:54:55;;;;;;;13.10;8.43;;;;;;;22.75;100.00;94480.31;10532043;28;20803;-72
2021/06/22 04:59:56;;;;;;;15.40;6.90;;;;;;;22.97;100.00;94480.78;10532634;28;20039;-72
2021/06/22 05:04:56;;;;;;;13.57;6.43;;;;;;;22.66;100.00;94480.53;10532618;28;20078;-73
2021/06/22 05:09:57;;;;;;;13.80;7.77;;;;;;;22.53;100.00;94490.00;10532236;28;20039;-73
2021/06/22 05:14:58;;;;;;;14.52;7.22;;;;;;;23.03;100.00;94495.81;10531789;28;20115;-73
2021/06/22 05:19:58;;;;;;;13.63;7.05;;;;;;;23.68;100.00;94483.41;10530804;28;20038;-73
2021/06/22 05:24:59;;;;;;;13.47;6.60;;;;;;;23.80;100.00;94504.41;10530870;28;20020;-73
2021/06/22 05:29:59;;;;;;;17.90;6.85;;;;;;;24.22;100.00;94514.59;10529140;28;20495;-73
2021/06/22 05:34:59;;;;;;;9.97;6.83;;;;;;;25.12;100.00;94509.69;10529967;28;20151;-73
2021/06/22 05:40:00;;;;;;;17.97;7.67;;;;;;;25.71;100.00;94510.84;10530335;28;20587;-73
2021/06/22 05:45:02;;;;;;;14.07;7.10;;;;;;;25.21;100.00;94508.25;10530237;28;20262;-73
2021/06/22 05:50:03;;;;;;;10.90;6.63;;;;;;;25.91;100.00;94502.41;10529762;28;20475;-73
2021/06/22 05:55:16;;;;;;;12.52;6.32;;;;;;;26.51;100.00;94504.16;10528130;28;20106;-73
2021/06/22 06:00:18;;;;;;;12.52;6.70;;;;;;;27.27;100.00;94507.47;10535113;28;20026;-73
2021/06/22 06:05:19;;;;;;;14.63;7.25;;;;;;;27.45;100.00;94508.38;10537973;28;20221;-73
2021/06/22 06:10:20;;;;;;;13.77;7.20;;;;;;;28.14;100.00;94505.84;10526902;28;20584;-73
2021/06/22 06:15:20;;;;;;;29.75;7.65;;;;;;;29.04;97.57;94503.09;10526610;28;20046;-74
2021/06/22 06:20:21;;;;;;;15.63;7.50;;;;;;;27.91;99.91;94506.94;10528684;28;20034;-74
2021/06/22 06:25:22;;;;;;;25.65;8.68;;;;;;;28.20;100.00;94514.53;10528769;28;20270;-73
2021/06/22 06:30:35;;;;;;;14.30;7.10;;;;;;;29.09;96.59;94510.97;10528859;28;20100;-73
2021/06/22 06:35:35;;;;;;;16.63;6.68;;;;;;;29.90;88.92;94510.34;10530550;28;20298;-73
2021/06/22 06:40:36;;;;;;;12.63;5.50;;;;;;;30.66;80.21;94518.22;10528535;28;20028;-73
2021/06/22 06:45:36;;;;;;;12.60;6.18;;;;;;;30.72;76.29;94516.56;10528203;28;20035;-73
2021/06/22 06:50:37;;;;;;;8.82;5.20;;;;;;;31.21;78.72;94529.63;10528660;28;20166;-74
2021/06/22 06:55:43;;;;;;;17.33;6.17;;;;;;;31.55;70.41;94529.63;10528582;28;20016;-73
2021/06/22 07:00:43;;;;;;;13.87;5.67;;;;;;;31.51;73.44;94532.47;10527116;28;20052;-73
2021/06/22 07:05:44;;;;;;;17.77;6.07;;;;;;;32.48;64.03;94540.81;10531704;28;20099;-74
2021/06/22 07:10:44;;;;;;;13.83;5.77;;;;;;;32.88;64.06;94530.66;10536231;28;20016;-73
2021/06/22 07:15:46;;;;;;;10.47;6.07;;;;;;;33.22;58.18;94534.44;10535996;28;20135;-73
2021/06/22 07:20:47;;;;;;;13.15;6.03;;;;;;;33.37;59.73;94535.00;10535696;28;20023;-74
2021/06/22 07:25:48;;;;;;;15.20;5.88;;;;;;;33.42;59.17;94545.63;10535139;28;20024;-74
2021/06/22 07:30:48;;;;;;;10.65;5.00;;;;;;;33.50;56.42;94535.94;10536268;28;20036;-74
2021/06/22 07:35:49;;;;;;;12.45;5.75;;;;;;;33.27;55.84;94531.22;10535904;28;20036;-74
2021/06/22 07:40:49;;;;;;;26.70;6.05;;;;;;;33.31;56.16;94533.91;10534823;28;20135;-73
2021/06/22 07:45:50;;;;;;;9.45;5.90;;;;;;;32.90;57.40;94538.56;10536091;28;20023;-73
2021/06/22 07:50:50;;;;;;;15.80;6.33;;;;;;;32.15;63.92;94526.56;10535806;28;20032;-74
2021/06/22 07:55:51;;;;;;;10.63;5.77;;;;;;;32.99;58.76;94538.03;10535606;28;20040;-73
2021/06/22 08:00:53;;;;;;;10.10;5.30;;;;;;;33.64;57.89;94528.53;10535168;28;20123;-74
2021/06/22 08:05:54;;;;;;;10.13;5.50;;;;;;;34.73;52.89;94527.78;10534641;28;20062;-73
2021/06/22 08:10:57;;;;;;;10.10;5.20;;;;;;;34.38;51.22;94519.84;10534666;28;20119;-73
2021/06/22 08:15:59;;;;;;;10.70;5.38;;;;;;;35.12;48.96;94517.66;10533251;28;20031;-73
2021/06/22 08:21:01;;;;;;;13.70;6.18;;;;;;;34.95;49.21;94513.34;10534368;28;20032;-74
2021/06/22 08:26:01;;;;;;;21.25;6.00;;;;;;;35.87;46.98;94512.09;10533404;28;20039;-73
2021/06/22 08:31:02;;;;;;;16.75;5.85;;;;;;;36.12;44.82;94509.78;10533177;28;20058;-73
2021/06/22 08:36:04;;;;;;;11.18;5.75;;;;;;;35.85;49.09;94506.16;10531794;28;20135;-74
2021/06/22 08:41:05;;;;;;;14.75;5.95;;;;;;;35.85;46.90;94513.75;10529828;28;20032;-74
2021/06/22 08:46:08;;;;;;;15.18;6.20;;;;;;;36.66;43.91;94511.72;10530436;28;20032;-74
2021/06/22 08:51:08;;;;;;;12.90;5.90;;;;;;;36.75;43.88;94522.25;10530095;28;20105;-74
2021/06/22 08:56:09;;;;;;;12.93;5.40;;;;;;;37.54;42.44;94511.22;10528981;28;20381;-74
2021/06/22 09:01:09;;;;;;;12.97;5.37;;;;;;;37.54;43.26;94505.59;10529964;28;20043;-74
2021/06/22 09:06:09;;;;;;;20.80;5.60;;;;;;;38.02;42.45;94511.09;10530337;28;20031;-74
2021/06/22 09:11:14;;;;;;;16.73;7.17;;;;;;;38.34;39.63;94502.72;10530148;28;20043;-74
2021/06/22 09:16:16;;;;;;;29.67;6.40;;;;;;;38.20;38.97;94499.19;10530067;28;20089;-72
2021/06/22 09:21:22;;;;;;;20.55;5.70;;;;;;;38.97;39.05;94501.34;10528757;28;20024;-72
2021/06/22 09:26:25;;;;;;;15.85;5.22;;;;;;;39.25;37.96;94497.84;10529939;28;20038;-72
2021/06/22 09:31:25;;;;;;;18.67;5.93;;;;;;;38.38;38.02;94504.13;10528557;28;20040;-72
2021/06/22 09:36:29;;;;;;;13.93;6.33;;;;;;;38.22;39.26;94507.97;10529417;28;20691;-72
2021/06/22 09:41:31;;;;;;;11.32;5.35;;;;;;;38.92;38.24;94509.63;10528923;28;20111;-72
2021/06/22 09:46:38;;;;;;;15.65;4.65;;;;;;;39.74;37.52;94496.13;10528372;28;20024;-72
2021/06/22 09:51:52;;;;;;;15.18;5.30;;;;;;;39.98;37.66;94491.41;10536464;28;20577;-72
2021/06/22 09:57:01;;;;;;;20.55;4.72;;;;;;;40.09;38.15;94495.78;10528743;28;20487;-72
2021/06/22 10:02:10;;;;;;;22.00;5.43;;;;;;;41.13;36.75;94487.22;10528033;28;20028;-72
2021/06/22 10:07:16;;;;;;;11.95;4.28;;;;;;;41.29;33.08;94488.81;10525966;28;20563;-72
2021/06/22 10:12:16;;;;;;;21.80;5.40;;;;;;;41.86;34.08;94492.78;10526144;28;20093;-73
2021/06/22 10:17:21;;;;;;;15.85;5.18;;;;;;;41.28;35.11;94485.22;10527361;28;20105;-74
2021/06/22 10:22:25;;;;;;;15.15;5.13;;;;;;;40.74;32.10;94478.66;10529816;28;20027;-74
2021/06/22 10:27:26;;;;;;;12.23;4.75;;;;;;;40.32;35.53;94469.75;10529896;28;20020;-72
2021/06/22 10:32:27;;;;;;;18.45;5.78;;;;;;;39.47;36.15;94467.53;10529465;28;20847;-72
2021/06/22 10:37:34;;;;;;;18.02;5.90;;;;;;;40.69;34.78;94468.81;10529417;28;20036;-74
2021/06/22 10:42:43;;;;;;;21.23;5.03;;;;;;;41.37;33.04;94461.06;10529033;28;20032;-74
2021/06/22 10:47:45;;;;;;;23.20;6.22;;;;;;;41.52;33.16;94464.69;10529255;28;20494;-72
2021/06/22 10:52:51;;;;;;;23.15;5.63;;;;;;;42.00;33.98;94458.88;10529309;28;20020;-72
2021/06/22 10:58:07;;;;;;;29.30;5.85;;;;;;;41.55;33.53;94458.06;10529490;28;20094;-74
2021/06/22 11:03:33;;;;;;;22.92;5.50;;;;;;;40.80;34.26;94465.47;10529230;28;20109;-73
2021/06/22 11:08:37;;;;;;;22.08;6.50;;;;;;;38.65;38.77;94457.72;10528740;28;20480;-73
2021/06/22 11:13:40;;;;;;;23.42;7.03;;;;;;;37.49;40.83;94454.94;10528543;28;20364;-73
2021/06/22 11:18:56;;;;;;;22.20;6.15;;;;;;;36.36;39.09;94457.88;10528579;28;20115;-73
2021/06/22 11:24:15;;;;;;;29.17;7.03;;;;;;;35.96;42.83;94452.69;10528702;28;20055;-73
2021/06/22 11:29:17;;;;;;;17.67;5.93;;;;;;;35.59;45.06;94455.72;10528556;28;20039;-73
2021/06/22 11:34:19;;;;;;;30.10;7.30;;;;;;;35.25;50.00;94443.09;10528436;28;20430;-73
2021/06/22 11:39:29;;;;;;;25.30;6.60;;;;;;;35.06;44.77;94442.00;10528149;28;20032;-73
2021/06/22 11:44:30;;;;;;;28.15;7.53;;;;;;;34.60;45.35;94440.41;10526914;28;20130;-73
2021/06/22 11:49:49;;;;;;;25.27;6.77;;;;;;;34.30;45.24;94440.31;10527470;28;20059;-74
2021/06/22 11:54:56;;;;;;;23.75;5.82;;;;;;;34.14;46.03;94438.25;10534126;28;20034;-74
2021/06/22 12:00:08;;;;;;;34.25;6.55;;;;;;;34.14;46.39;94435.47;10535351;28;20862;-74
2021/06/22 12:05:11;;;;;;;20.85;6.00;;;;;;;33.73;43.51;94431.97;10534807;28;20109;-74
2021/06/22 12:10:12;;;;;;;25.27;5.55;;;;;;;33.78;44.79;94432.72;10534758;28;20044;-74
2021/06/22 12:15:13;;;;;;;35.80;7.53;;;;;;;33.89;55.70;94422.88;10534762;28;20032;-74
2021/06/22 12:20:25;;;;;;;28.23;6.97;;;;;;;33.59;57.17;94417.56;10533701;28;20023;-74
2021/06/22 12:25:25;;;;;;;24.42;5.80;;;;;;;33.88;47.40;94415.75;10534173;28;20028;-74
2021/06/22 12:30:36;;;;;;;34.03;6.20;;;;;;;33.99;49.50;94420.28;10533950;28;20407;-72
2021/06/22 12:35:37;;;;;;;27.55;5.85;;;;;;;33.95;48.38;94414.00;10533056;28;20056;-74
2021/06/22 12:40:40;;;;;;;22.10;4.97;;;;;;;33.85;55.48;94415.81;10533750;28;20165;-74
2021/06/22 12:45:40;;;;;;;28.25;6.38;;;;;;;33.61;48.15;94413.13;10531943;28;20471;-74
2021/06/22 12:50:41;;;;;;;25.50;5.93;;;;;;;33.39;52.51;94410.81;10533558;28;20301;-74
2021/06/22 12:55:55;;;;;;;24.25;5.32;;;;;;;32.85;50.45;94420.16;10533295;28;20034;-74
2021/06/22 13:00:55;;;;;;;23.52;5.43;;;;;;;32.60;51.71;94415.03;10532529;28;20031;-72
2021/06/22 13:05:56;;;;;;;18.27;5.60;;;;;;;32.16;52.51;94414.94;10532532;28;20747;-72
2021/06/22 13:10:56;;;;;;;28.37;5.90;;;;;;;31.94;51.47;94408.91;10532249;28;20020;-72
2021/06/22 13:16:09;;;;;;;25.93;6.23;;;;;;;31.93;58.94;94412.09;10532086;28;20024;-74
2021/06/22 13:21:13;;;;;;;26.50;6.15;;;;;;;31.99;52.38;94410.41;10532185;28;20149;-73
2021/06/22 13:26:13;;;;;;;28.48;5.63;;;;;;;32.27;50.07;94420.34;10531640;28;20099;-73
2021/06/22 13:31:14;;;;;;;32.15;5.50;;;;;;;32.40;51.15;94428.09;10531966;28;20032;-73
2021/06/22 13:36:19;;;;;;;25.75;5.80;;;;;;;32.35;52.67;94430.13;10530057;28;20494;-73
2021/06/22 13:41:19;;;;;;;38.05;6.43;;;;;;;32.33;53.41;94420.63;10531513;28;20486;-73
2021/06/22 13:46:28;;;;;;;33.80;5.67;;;;;;;32.14;59.02;94417.38;10531171;28;20088;-73
2021/06/22 13:51:31;;;;;;;22.65;5.75;;;;;;;32.07;57.93;94411.09;10530624;28;20032;-73
2021/06/22 13:56:32;;;;;;;30.45;5.10;;;;;;;31.71;57.76;94411.63;10530409;28;20034;-73
2021/06/22 14:01:33;;;;;;;29.80;5.57;;;;;;;31.47;57.70;94406.75;10530881;28;20107;-73
2021/06/22 14:06:33;;;;;;;34.27;5.20;;;;;;;31.26;45.96;94413.34;10530096;28;20026;-73
2021/06/22 14:11:34;;;;;;;29.45;5.93;;;;;;;31.24;55.25;94407.41;10529985;28;20081;-73
2021/06/22 14:16:36;;;;;;;36.85;5.78;;;;;;;31.10;54.70;94408.38;10529172;28;20026;-73
2021/06/22 14:21:36;;;;;;;40.33;6.88;;;;;;;31.02;49.47;94421.56;10529701;28;20028;-73
2021/06/22 14:26:38;;;;;;;35.28;5.97;;;;;;;31.03;55.38;94416.78;10528319;28;20429;-73
2021/06/22 14:31:40;;;;;;;39.72;7.10;;;;;;;30.90;57.28;94421.28;10529449;28;20402;-73
2021/06/22 14:36:40;;;;;;;36.40;7.05;;;;;;;30.84;54.71;94423.72;10527626;28;20093;-73
2021/06/22 14:41:41;;;;;;;29.03;6.43;;;;;;;30.88;58.30;94423.66;10529329;28;20070;-73
2021/06/22 14:46:41;;;;;;;21.40;5.00;;;;;;;30.94;59.43;94433.13;10529376;28;20027;-73
2021/06/22 14:51:42;;;;;;;25.27;5.93;;;;;;;30.97;69.26;94423.97;10528637;28;20028;-73
2021/06/22 14:56:42;;;;;;;33.83;6.32;;;;;;;30.86;72.46;94424.09;10529233;28;20118;-73
2021/06/22 15:01:43;;;;;;;27.77;6.53;;;;;;;30.70;64.74;94413.56;10529004;28;20055;-74
2021/06/22 15:06:43;;;;;;;29.73;5.43;;;;;;;30.69;57.22;94406.44;10528596;28;20480;-74
2021/06/22 15:11:44;;;;;;;31.13;5.90;;;;;;;30.57;61.06;94413.25;10528957;28;20085;-74
2021/06/22 15:16:44;;;;;;;24.03;5.00;;;;;;;30.44;64.85;94421.31;10528634;28;20110;-74
2021/06/22 15:21:45;;;;;;;38.37;6.83;;;;;;;30.50;70.50;94419.69;10528791;28;20111;-74
2021/06/22 15:26:46;;;;;;;29.60;6.78;;;;;;;30.58;74.55;94416.84;10531855;28;20024;-74
2021/06/22 15:31:47;;;;;;;27.17;7.25;;;;;;;30.70;70.45;94408.00;10536345;28;20086;-74
2021/06/22 15:36:47;;;;;;;32.08;6.18;;;;;;;30.84;69.61;94407.84;10536582;28;20143;-74
2021/06/22 15:41:47;;;;;;;47.10;7.53;;;;;;;30.65;70.46;94400.13;10535998;28;20024;-74
2021/06/22 15:46:48;;;;;;;37.67;6.13;;;;;;;30.61;68.50;94407.69;10535314;28;20093;-73
2021/06/22 15:51:49;;;;;;;34.33;6.30;;;;;;;30.29;71.10;94412.28;10535896;28;20650;-74
2021/06/22 15:56:50;;;;;;;41.42;5.95;;;;;;;30.11;73.50;94406.88;10533983;28;20460;-73
2021/06/22 16:01:50;;;;;;;24.25;5.45;;;;;;;29.94;77.17;94408.59;10535393;28;20098;-74
2021/06/22 16:06:51;;;;;;;26.63;6.45;;;;;;;29.90;74.27;94409.81;10534990;28;20023;-73
2021/06/22 16:11:52;;;;;;;34.93;7.10;;;;;;;29.90;74.49;94395.97;10534131;28;20020;-73
2021/06/22 16:16:52;;;;;;;22.52;5.60;;;;;;;29.86;78.00;94400.75;10533778;28;20044;-74
2021/06/22 16:21:52;;;;;;;33.60;5.83;;;;;;;29.81;69.32;94408.25;10532005;28;20020;-73
2021/06/22 16:26:53;;;;;;;30.43;6.17;;;;;;;29.78;69.16;94409.09;10532011;28;20288;-73
2021/06/22 16:31:53;;;;;;;31.20;5.88;;;;;;;29.74;75.15;94405.53;10532653;28;20036;-73
2021/06/22 16:36:54;;;;;;;29.60;5.50;;;;;;;29.64;74.83;94400.88;10531000;28;20118;-74
2021/06/22 16:41:54;;;;;;;26.43;5.47;;;;;;;29.63;73.03;94405.59;10531693;28;20036;-73
2021/06/22 16:46:56;;;;;;;23.17;6.80;;;;;;;29.58;74.60;94419.09;10530824;28;20024;-74
2021/06/22 16:51:56;;;;;;;30.08;6.45;;;;;;;29.53;87.09;94427.81;10530949;28;20024;-73
2021/06/22 16:56:57;;;;;;;37.15;8.10;;;;;;;29.37;96.00;94429.06;10531336;28;20462;-73
2021/06/22 17:01:58;;;;;;;28.60;6.32;;;;;;;29.12;85.36;94427.19;10531270;28;20402;-73
2021/06/22 17:06:58;;;;;;;41.25;5.82;;;;;;;29.07;83.25;94438.66;10531052;28;20017;-73
2021/06/22 17:11:59;;;;;;;30.47;6.90;;;;;;;28.93;89.25;94439.47;10531551;28;20024;-73
2021/06/22 17:16:59;;;;;;;38.38;7.20;;;;;;;28.86;95.48;94436.75;10530886;28;20505;-74
2021/06/22 17:21:59;;;;;;;31.60;6.33;;;;;;;28.71;91.15;94449.00;10531072;28;20016;-73
2021/06/22 17:27:00;;;;;;;41.23;6.77;;;;;;;28.58;95.28;94443.84;10531370;28;20407;-74
2021/06/22 17:32:00;;;;;;;25.73;6.73;;;;;;;28.49;97.91;94451.75;10530445;28;20089;-74
2021/06/22 17:37:00;;;;;;;27.87;7.17;;;;;;;28.43;100.00;94456.13;10530355;28;20027;-73
2021/06/22 17:42:01;;;;;;;35.90;7.60;;;;;;;28.28;100.00;94464.38;10529124;28;20015;-73
2021/06/22 17:47:02;;;;;;;28.90;7.40;;;;;;;28.17;100.00;94462.81;10528549;28;20459;-73
2021/06/22 17:52:04;;;;;;;43.22;8.48;;;;;;;27.99;100.00;94462.75;10529221;28;20020;-74
2021/06/22 17:57:05;;;;;;;47.50;8.02;;;;;;;27.87;100.00;94463.94;10528727;28;20028;-73
2021/06/22 18:02:05;;;;;;;35.78;7.25;;;;;;;27.72;100.00;94468.63;10528930;28;20031;-73
2021/06/22 18:07:06;;;;;;;37.60;8.23;;;;;;;27.65;100.00;94485.97;10527935;28;20026;-73
2021/06/22 18:12:06;;;;;;;48.80;9.07;;;;;;;27.57;100.00;94489.88;10528717;28;20081;-74
2021/06/22 18:17:07;;;;;;;36.67;7.28;;;;;;;27.21;100.00;94492.44;10503032;28;20128;-73
2021/06/22 18:22:07;;;;;;;29.93;6.40;;;;;;;26.93;100.00;94491.91;10485532;28;20031;-74
2021/06/22 18:27:08;;;;;;;32.83;7.17;;;;;;;26.70;100.00;94496.88;10485702;28;20274;-74
2021/06/22 18:32:10;;;;;;;45.07;8.57;;;;;;;26.61;100.00;94494.41;10485713;28;20049;-74
2021/06/22 18:37:10;;;;;;;38.03;6.95;;;;;;;26.47;100.00;94499.81;10486759;28;20040;-74
2021/06/22 18:42:10;;;;;;;39.37;7.33;;;;;;;26.32;100.00;94496.94;10486195;28;20415;-74
2021/06/22 18:47:11;;;;;;;36.83;9.73;;;;;;;26.30;100.00;94512.25;10486394;28;20024;-74
2021/06/22 18:52:14;;;;;;;36.42;7.57;;;;;;;26.17;100.00;94515.28;10486166;28;20839;-72
2021/06/22 18:57:14;;;;;;;37.05;7.70;;;;;;;26.12;100.00;94518.38;10485900;28;20488;-72
2021/06/22 19:02:14;;;;;;;34.97;7.27;;;;;;;26.10;100.00;94531.75;10490717;28;20040;-72
2021/06/22 19:07:16;;;;;;;31.83;9.63;;;;;;;26.05;100.00;94532.09;10494393;28;20028;-73
2021/06/22 19:12:16;;;;;;;33.38;6.78;;;;;;;26.04;100.00;94534.06;10494158;28;20020;-73
2021/06/22 19:17:17;;;;;;;36.27;6.60;;;;;;;26.02;100.00;94541.13;10494398;28;20024;-72
2021/06/22 19:22:17;;;;;;;41.60;8.40;;;;;;;25.96;100.00;94543.38;10509487;28;20491;-72
2021/06/22 19:27:17;;;;;;;43.50;7.93;;;;;;;25.87;100.00;94551.13;10494024;28;20475;-72
2021/06/22 19:32:18;;;;;;;35.03;6.80;;;;;;;25.70;100.00;94555.28;10493485;28;20488;-72
2021/06/22 19:37:19;;;;;;;39.70;7.03;;;;;;;25.61;100.00;94561.06;10492941;28;20482;-72
2021/06/22 19:42:19;;;;;;;38.50;6.20;;;;;;;25.46;100.00;94551.84;10492013;28;20281;-73
2021/06/22 19:47:19;;;;;;;32.65;5.57;;;;;;;25.49;100.00;94550.31;10491335;28;20024;-73
2021/06/22 19:52:20;;;;;;;34.53;7.50;;;;;;;25.46;100.00;94549.09;10492325;28;20038;-73
2021/06/22 19:57:20;;;;;;;47.25;8.23;;;;;;;25.53;100.00;94562.94;10492463;28;20056;-73
2021/06/22 20:02:21;;;;;;;34.90;9.20;;;;;;;25.56;100.00;94559.44;10492179;28;20040;-73
2021/06/22 20:07:21;;;;;;;35.63;6.63;;;;;;;25.59;100.00;94560.63;10491078;28;20294;-73
2021/06/22 20:12:21;;;;;;;46.50;7.60;;;;;;;25.61;100.00;94565.78;10490402;28;20274;-73
2021/06/22 20:17:23;;;;;;;46.70;8.13;;;;;;;25.53;100.00;94565.69;10490263;28;20038;-73
2021/06/22 20:22:23;;;;;;;36.67;6.97;;;;;;;25.46;100.00;94579.34;10491749;28;20047;-73
2021/06/22 20:27:24;;;;;;;42.10;8.27;;;;;;;25.38;100.00;94583.97;10491334;28;20024;-73
2021/06/22 20:32:25;;;;;;;38.47;10.57;;;;;;;25.24;100.00;94583.72;10490905;28;20079;-73
2021/06/22 20:37:26;;;;;;;35.35;6.40;;;;;;;24.87;100.00;94598.13;10491046;28;20032;-73
2021/06/22 20:42:26;;;;;;;33.78;7.32;;;;;;;24.73;100.00;94602.22;10490047;28;20097;-73
2021/06/22 20:47:26;;;;;;;27.80;6.27;;;;;;;24.13;100.00;94608.19;10488229;28;20032;-73
2021/06/22 20:52:27;;;;;;;24.77;6.50;;;;;;;23.96;100.00;94608.63;10489219;28;20028;-73
2021/06/22 20:57:27;;;;;;;34.97;6.80;;;;;;;23.69;100.00;94612.03;10489912;28;20028;-73
2021/06/22 21:02:27;;;;;;;30.10;6.50;;;;;;;23.55;100.00;94611.69;10490149;28;20035;-73
2021/06/22 21:07:28;;;;;;;28.33;7.80;;;;;;;23.41;100.00;94606.69;10489766;28;20030;-73
2021/06/22 21:12:28;;;;;;;26.97;6.67;;;;;;;23.41;100.00;94606.69;10489638;28;20506;-73
2021/06/22 21:17:29;;;;;;;30.03;5.90;;;;;;;23.38;100.00;94605.47;10526487;28;20406;-73
2021/06/22 21:22:29;;;;;;;26.20;9.23;;;;;;;23.40;100.00;94604.31;10530752;28;20301;-73
2021/06/22 21:27:29;;;;;;;28.17;6.27;;;;;;;23.50;100.00;94615.53;10529602;28;20266;-73
2021/06/22 21:32:30;;;;;;;23.63;6.70;;;;;;;23.57;100.00;94612.16;10530079;28;20177;-73
2021/06/22 21:37:30;;;;;;;27.93;6.30;;;;;;;23.46;100.00;94609.16;10529136;28;20028;-73
2021/06/22 21:42:31;;;;;;;35.38;7.72;;;;;;;23.25;100.00;94614.16;10528951;28;20027;-73
2021/06/22 21:47:31;;;;;;;37.57;6.63;;;;;;;23.16;100.00;94612.44;10529569;28;20032;-73
2021/06/22 21:52:32;;;;;;;28.90;6.13;;;;;;;23.18;100.00;94612.09;10530059;28;21251;-73
2021/06/22 21:57:32;;;;;;;30.20;6.22;;;;;;;23.06;100.00;94618.44;10529684;28;20028;-73
2021/06/22 22:02:33;;;;;;;28.10;6.80;;;;;;;23.04;100.00;94627.00;10529555;28;20059;-73
2021/06/22 22:07:33;;;;;;;27.50;5.30;;;;;;;22.92;100.00;94624.38;10529302;28;20063;-73
2021/06/22 22:12:33;;;;;;;32.63;6.57;;;;;;;22.99;100.00;94623.75;10528934;28;20036;-73
2021/06/22 22:17:35;;;;;;;25.77;5.43;;;;;;;23.08;100.00;94621.63;10528663;28;20063;-73
2021/06/22 22:22:36;;;;;;;40.97;6.82;;;;;;;23.14;100.00;94611.22;10529211;28;20028;-73
2021/06/22 22:27:37;;;;;;;36.80;7.28;;;;;;;23.09;100.00;94601.25;10528017;28;20020;-73
2021/06/22 22:32:38;;;;;;;33.83;7.18;;;;;;;23.06;100.00;94614.91;10527222;28;20432;-73
2021/06/22 22:37:39;;;;;;;28.08;6.25;;;;;;;22.90;100.00;94612.97;10526524;28;20032;-73
2021/06/22 22:42:39;;;;;;;25.27;5.03;;;;;;;22.93;100.00;94623.22;10531798;28;20035;-73
2021/06/22 22:47:40;;;;;;;35.45;5.75;;;;;;;22.97;100.00;94632.31;10531650;28;20408;-73
2021/06/22 22:52:40;;;;;;;32.80;5.27;;;;;;;22.90;100.00;94631.34;10531686;28;20100;-73
2021/06/22 22:57:42;;;;;;;25.67;4.80;;;;;;;22.80;100.00;94632.69;10531484;28;20024;-73
2021/06/22 23:02:43;;;;;;;27.70;5.97;;;;;;;22.84;100.00;94617.94;10531455;28;20055;-73